Time;durP1;ratioP1;P1;durP2;ratioP2;P2;SDS_P1;SDS_P2;PMS_P1;PMS_P2;Temp;Humidity;BMP_temperature;BMP_pressure;BME280_temperature;BME280_humidity;BME280_pressure;Samples;Min_cycle;Max_cycle;Signal;HPM_P1;HPM_P2
2023/08/08 00:00:32;;;;;;;;;;;12.20;99.90;;;;;;5005444;28;19921;-72
2023/08/08 00:02:59;;;;;;;;;;;12.20;99.90;;;;;;4983373;28;19954;-73
2023/08/08 00:05:25;;;;;;;;;;;12.20;99.90;;;;;;4986664;28;20269;-73
2023/08/08 00:07:53;;;;;;;;;;;12.30;99.90;;;;;;4986642;28;19928;-73
2023/08/08 00:10:20;;;;;;;;;;;12.30;99.90;;;;;;4987002;28;20243;-73
2023/08/08 00:12:46;;;;;;;;;;;12.30;99.90;;;;;;4987091;28;19922;-72
2023/08/08 00:15:13;;;;;;;;;;;12.30;99.90;;;;;;4993348;28;19941;-73
2023/08/08 00:17:40;;;;;;;;;;;12.30;99.90;;;;;;4997408;28;19928;-73
2023/08/08 00:20:08;;;;;;;;;;;12.40;99.90;;;;;;4994133;28;20280;-72
2023/08/08 00:22:34;;;;;;;;;;;12.40;99.90;;;;;;4986648;28;19922;-72
2023/08/08 00:25:04;;;;;;;;;;;12.40;99.90;;;;;;4983960;28;19922;-73
2023/08/08 00:27:31;;;;;;;;;;;12.40;99.90;;;;;;4985562;28;19980;-72
2023/08/08 00:29:57;;;;;;;;;;;12.40;99.90;;;;;;4986581;28;19922;-72
2023/08/08 00:32:24;;;;;;;;;;;12.40;99.90;;;;;;4994449;28;19922;-73
2023/08/08 00:34:50;;;;;;;;;;;12.40;99.90;;;;;;5005576;28;20153;-72
2023/08/08 00:37:17;;;;;;;;;;;12.40;99.90;;;;;;5005322;28;19922;-72
2023/08/08 00:39:45;;;;;;;;;;;12.40;99.90;;;;;;5005754;28;19988;-72
2023/08/08 00:42:13;;;;;;;;;;;12.40;99.90;;;;;;5005710;28;19922;-73
2023/08/08 00:44:40;;;;;;;;;;;12.50;99.90;;;;;;5002873;28;19986;-72
2023/08/08 00:47:07;;;;;;;;;;;12.50;99.90;;;;;;4993893;28;20256;-72
2023/08/08 00:49:34;;;;;;;;;;;12.60;99.90;;;;;;4986484;28;19989;-73
2023/08/08 00:52:00;;;;;;;;;;;12.50;99.90;;;;;;4985870;28;19990;-72
2023/08/08 00:54:27;;;;;;;;;;;12.50;99.90;;;;;;4986063;28;19922;-72
2023/08/08 00:56:53;;;;;;;;;;;12.60;99.90;;;;;;4985338;28;19989;-73
2023/08/08 00:59:22;;;;;;;;;;;12.60;99.90;;;;;;4983880;28;19945;-73
2023/08/08 01:01:48;;;;;;;;;;;12.60;99.90;;;;;;4990323;28;19986;-73
2023/08/08 01:04:15;;;;;;;;;;;12.60;99.90;;;;;;4985891;28;20206;-73
2023/08/08 01:06:45;;;;;;;;;;;12.60;99.90;;;;;;4985356;28;19922;-72
2023/08/08 01:09:19;;;;;;;;;;;12.60;99.90;;;;;;4985844;28;19962;-72
2023/08/08 01:11:48;;;;;;;;;;;12.60;99.90;;;;;;4985975;28;19929;-73
2023/08/08 01:14:16;;;;;;;;;;;12.60;99.90;;;;;;4982494;28;19922;-71
2023/08/08 01:16:44;;;;;;;;;;;12.60;99.90;;;;;;4994591;28;20001;-72
2023/08/08 01:19:12;;;;;;;;;;;12.60;99.90;;;;;;5005391;28;19922;-73
2023/08/08 01:21:40;;;;;;;;;;;12.50;99.90;;;;;;5005021;28;19992;-72
2023/08/08 01:24:17;;;;;;;;;;;12.50;99.90;;;;;;5004861;28;19992;-73
2023/08/08 01:26:44;;;;;;;;;;;12.50;99.90;;;;;;5004412;28;19949;-73
2023/08/08 01:29:11;;;;;;;;;;;12.50;99.90;;;;;;5004994;28;20177;-73
2023/08/08 01:31:38;;;;;;;;;;;12.50;99.90;;;;;;4995018;28;19952;-72
2023/08/08 01:34:10;;;;;;;;;;;12.40;99.90;;;;;;4982572;28;20218;-72
2023/08/08 01:36:49;;;;;;;;;;;12.40;99.90;;;;;;4984719;28;19988;-73
2023/08/08 01:39:18;;;;;;;;;;;12.40;99.90;;;;;;4984690;28;19981;-73
2023/08/08 01:41:47;;;;;;;;;;;12.40;99.90;;;;;;4985493;28;19949;-73
2023/08/08 01:44:13;;;;;;;;;;;12.40;99.90;;;;;;4984918;28;19994;-73
2023/08/08 01:46:41;;;;;;;;;;;12.40;99.90;;;;;;4994875;28;19997;-73
2023/08/08 01:49:07;;;;;;;;;;;12.40;99.90;;;;;;4989521;28;19985;-73
2023/08/08 01:51:34;;;;;;;;;;;12.40;99.90;;;;;;4984890;28;19989;-73
2023/08/08 01:54:00;;;;;;;;;;;12.50;99.90;;;;;;4984991;28;19961;-72
2023/08/08 01:56:28;;;;;;;;;;;12.50;99.90;;;;;;4984265;28;19994;-73
2023/08/08 01:58:55;;;;;;;;;;;12.50;99.90;;;;;;4977779;28;19990;-72
2023/08/08 02:01:22;;;;;;;;;;;12.50;99.90;;;;;;4989211;28;20210;-73
2023/08/08 02:03:48;;;;;;;;;;;12.50;99.90;;;;;;5004224;28;19981;-72
2023/08/08 02:06:15;;;;;;;;;;;12.50;99.90;;;;;;4993470;28;20105;-72
2023/08/08 02:08:41;;;;;;;;;;;12.50;99.90;;;;;;4974056;28;20126;-72
2023/08/08 02:11:08;;;;;;;;;;;12.50;99.90;;;;;;4965723;29;19930;-72
2023/08/08 02:13:38;;;;;;;;;;;12.50;99.90;;;;;;4965354;29;20214;-73
2023/08/08 02:16:05;;;;;;;;;;;12.50;99.90;;;;;;4981858;28;19922;-72
2023/08/08 02:18:31;;;;;;;;;;;12.50;99.90;;;;;;4980935;28;19985;-72
2023/08/08 02:20:58;;;;;;;;;;;12.50;99.90;;;;;;4981246;28;19922;-72
2023/08/08 02:23:26;;;;;;;;;;;12.40;99.90;;;;;;4984737;28;20041;-72
2023/08/08 02:25:52;;;;;;;;;;;12.40;99.90;;;;;;4984434;28;19929;-72
2023/08/08 02:28:19;;;;;;;;;;;12.40;99.90;;;;;;4984475;28;19985;-72
2023/08/08 02:30:47;;;;;;;;;;;12.30;99.90;;;;;;4992301;28;20285;-72
2023/08/08 02:33:14;;;;;;;;;;;12.30;99.90;;;;;;4999452;28;19964;-72
2023/08/08 02:35:40;;;;;;;;;;;12.30;99.90;;;;;;5003942;28;19921;-72
2023/08/08 02:38:07;;;;;;;;;;;12.20;99.90;;;;;;5003378;28;19949;-73
2023/08/08 02:40:33;;;;;;;;;;;12.10;99.90;;;;;;5004069;28;19921;-72
2023/08/08 02:43:00;;;;;;;;;;;12.10;99.90;;;;;;5002050;28;20095;-72
2023/08/08 02:45:27;;;;;;;;;;;12.10;99.90;;;;;;4998505;28;19922;-73
2023/08/08 02:47:55;;;;;;;;;;;12.10;99.90;;;;;;4984001;28;20378;-72
2023/08/08 02:50:21;;;;;;;;;;;12.10;99.90;;;;;;4985264;28;20313;-72
2023/08/08 02:52:48;;;;;;;;;;;12.10;99.90;;;;;;4979411;28;19922;-72
2023/08/08 02:55:15;;;;;;;;;;;12.00;99.90;;;;;;4968883;29;19953;-72
2023/08/08 02:57:42;;;;;;;;;;;12.00;99.90;;;;;;4968107;29;19954;-72
2023/08/08 03:00:11;;;;;;;;;;;12.00;99.90;;;;;;4978584;28;19922;-72
2023/08/08 03:02:45;;;;;;;;;;;12.00;99.90;;;;;;4997074;28;19921;-72
2023/08/08 03:05:16;;;;;;;;;;;12.00;99.90;;;;;;4987857;28;19954;-71
2023/08/08 03:07:51;;;;;;;;;;;12.00;99.90;;;;;;4984286;28;19934;-72
2023/08/08 03:10:18;;;;;;;;;;;12.00;99.90;;;;;;4964006;29;19953;-72
2023/08/08 03:12:44;;;;;;;;;;;12.00;99.90;;;;;;4967454;28;19923;-72
2023/08/08 03:15:14;;;;;;;;;;;11.90;99.90;;;;;;4980277;28;19988;-72
2023/08/08 03:17:41;;;;;;;;;;;11.90;99.90;;;;;;4997379;28;19960;-72
2023/08/08 03:20:08;;;;;;;;;;;11.80;99.90;;;;;;4987780;28;19922;-72
2023/08/08 03:22:36;;;;;;;;;;;11.80;99.90;;;;;;4971559;28;19985;-72
2023/08/08 03:25:04;;;;;;;;;;;11.80;99.90;;;;;;4968139;28;19954;-72
2023/08/08 03:27:31;;;;;;;;;;;11.80;99.90;;;;;;4967930;28;19923;-72
2023/08/08 03:30:01;;;;;;;;;;;11.80;99.90;;;;;;4977517;28;19945;-72
2023/08/08 03:32:28;;;;;;;;;;;11.70;99.90;;;;;;4999111;28;19929;-72
2023/08/08 03:34:55;;;;;;;;;;;11.70;99.90;;;;;;5006818;28;19960;-72
2023/08/08 03:50:13;;;;;;;;;;;11.70;99.90;;;;;;4969773;28;19954;-91
2023/08/08 03:56:08;;;;;;;;;;;11.70;99.90;;;;;;4986632;28;19973;-90
2023/08/08 04:33:43;;;;;;;;;;;11.60;99.90;;;;;;5025834;22;19921;-73
2023/08/08 04:42:16;;;;;;;;;;;11.50;99.90;;;;;;5005893;28;19957;-74
2023/08/08 04:44:42;;;;;;;;;;;11.50;99.90;;;;;;5005621;28;20264;-74
2023/08/08 04:47:33;;;;;;;;;;;11.50;99.90;;;;;;5005191;28;19921;-73
2023/08/08 04:50:01;;;;;;;;;;;11.50;99.90;;;;;;5003924;28;19957;-73
2023/08/08 04:52:28;;;;;;;;;;;11.50;99.90;;;;;;4998483;28;19985;-74
2023/08/08 04:54:55;;;;;;;;;;;11.50;99.90;;;;;;5005541;28;20252;-74
2023/08/08 04:57:21;;;;;;;;;;;11.50;99.90;;;;;;5004916;28;19990;-74
2023/08/08 04:59:50;;;;;;;;;;;11.60;99.90;;;;;;5005407;28;20205;-71
2023/08/08 05:02:17;;;;;;;;;;;11.60;99.90;;;;;;5005274;28;19984;-73
2023/08/08 05:04:43;;;;;;;;;;;11.60;99.90;;;;;;5005546;28;19922;-71
2023/08/08 05:07:11;;;;;;;;;;;11.60;99.90;;;;;;4995700;28;20112;-71
2023/08/08 05:09:41;;;;;;;;;;;11.60;99.90;;;;;;5015237;28;20232;-71
2023/08/08 05:12:08;;;;;;;;;;;11.70;99.90;;;;;;5007842;28;19922;-72
2023/08/08 05:14:35;;;;;;;;;;;11.80;99.90;;;;;;5005270;28;19964;-71
2023/08/08 05:17:02;;;;;;;;;;;11.80;99.90;;;;;;5004647;28;19989;-71
2023/08/08 05:19:29;;;;;;;;;;;11.80;99.90;;;;;;5005355;28;19957;-71
2023/08/08 05:21:55;;;;;;;;;;;11.80;99.90;;;;;;4994727;28;20142;-71
2023/08/08 05:24:23;;;;;;;;;;;11.80;99.90;;;;;;5004834;28;19961;-70
2023/08/08 05:26:50;;;;;;;;;;;11.80;99.90;;;;;;5004034;28;19992;-70
2023/08/08 05:29:16;;;;;;;;;;;12.00;99.90;;;;;;5004860;28;20213;-71
2023/08/08 05:31:43;;;;;;;;;;;12.10;99.90;;;;;;5005067;28;19985;-71
2023/08/08 05:34:09;;;;;;;;;;;12.20;99.90;;;;;;5004731;28;19984;-71
2023/08/08 05:36:36;;;;;;;;;;;12.20;99.90;;;;;;5002727;28;19928;-71
2023/08/08 05:39:03;;;;;;;;;;;12.30;99.90;;;;;;5004543;28;19990;-71
2023/08/08 05:41:31;;;;;;;;;;;12.30;99.90;;;;;;5004730;28;19922;-71
2023/08/08 05:43:58;;;;;;;;;;;12.40;99.90;;;;;;5001876;28;19986;-71
2023/08/08 05:46:24;;;;;;;;;;;12.50;99.90;;;;;;4984289;28;20001;-71
2023/08/08 05:48:51;;;;;;;;;;;12.50;99.90;;;;;;5000000;28;19985;-71
2023/08/08 05:51:18;;;;;;;;;;;12.60;99.90;;;;;;5000673;28;20142;-71
2023/08/08 05:53:44;;;;;;;;;;;12.70;99.90;;;;;;5007018;28;19928;-71
2023/08/08 05:56:11;;;;;;;;;;;12.80;99.90;;;;;;5022456;28;19940;-69
2023/08/08 05:58:39;;;;;;;;;;;12.90;99.90;;;;;;5004144;28;19929;-70
2023/08/08 06:01:06;;;;;;;;;;;13.00;99.90;;;;;;4995528;28;19986;-70
2023/08/08 06:03:32;;;;;;;;;;;13.00;99.90;;;;;;5000507;28;19930;-70
2023/08/08 06:05:59;;;;;;;;;;;13.00;99.90;;;;;;5002143;28;19930;-70
2023/08/08 06:08:26;;;;;;;;;;;13.10;99.90;;;;;;5009695;28;19989;-70
2023/08/08 06:10:52;;;;;;;;;;;13.10;99.90;;;;;;5024178;28;19964;-70
2023/08/08 06:13:21;;;;;;;;;;;13.20;99.90;;;;;;5018206;28;19984;-70
2023/08/08 06:15:49;;;;;;;;;;;13.20;99.90;;;;;;5003998;28;19985;-70
2023/08/08 06:18:16;;;;;;;;;;;13.30;99.90;;;;;;4986330;28;19953;-70
2023/08/08 06:20:42;;;;;;;;;;;13.30;99.90;;;;;;5004159;28;20034;-70
2023/08/08 06:23:09;;;;;;;;;;;13.40;99.90;;;;;;5013290;28;19921;-70
2023/08/08 06:25:38;;;;;;;;;;;13.40;99.90;;;;;;5009761;28;20145;-70
2023/08/08 06:28:06;;;;;;;;;;;13.50;99.90;;;;;;5029800;28;19921;-71
2023/08/08 06:30:33;;;;;;;;;;;13.50;99.90;;;;;;5030584;28;19968;-70
2023/08/08 06:33:01;;;;;;;;;;;13.60;99.90;;;;;;5030512;28;19921;-70
2023/08/08 06:35:27;;;;;;;;;;;13.70;99.90;;;;;;5030451;28;19953;-71
2023/08/08 06:37:54;;;;;;;;;;;13.70;99.90;;;;;;5005797;28;19922;-70
2023/08/08 06:40:21;;;;;;;;;;;13.80;99.90;;;;;;5010769;28;19996;-70
2023/08/08 06:42:47;;;;;;;;;;;13.80;99.90;;;;;;5010828;28;19953;-70
2023/08/08 06:45:14;;;;;;;;;;;13.90;99.90;;;;;;5010575;28;19984;-71
2023/08/08 06:47:40;;;;;;;;;;;14.00;99.90;;;;;;5009685;28;19957;-71
2023/08/08 06:50:09;;;;;;;;;;;14.10;99.90;;;;;;5010773;28;19984;-71
2023/08/08 06:52:36;;;;;;;;;;;14.20;99.90;;;;;;5008270;28;20263;-71
2023/08/08 06:55:03;;;;;;;;;;;14.30;99.90;;;;;;5010519;28;19921;-72
2023/08/08 06:57:31;;;;;;;;;;;14.30;99.90;;;;;;5010137;28;19961;-71
2023/08/08 06:59:57;;;;;;;;;;;14.40;99.90;;;;;;5010468;28;19957;-71
2023/08/08 07:02:24;;;;;;;;;;;14.50;99.90;;;;;;5011082;28;19984;-70
2023/08/08 07:04:51;;;;;;;;;;;14.60;99.90;;;;;;5010675;28;19993;-70
2023/08/08 07:07:19;;;;;;;;;;;14.60;99.90;;;;;;5005534;28;20145;-72
2023/08/08 07:09:46;;;;;;;;;;;14.60;99.90;;;;;;5021532;28;20280;-70
2023/08/08 07:12:12;;;;;;;;;;;14.70;99.90;;;;;;5029987;28;19964;-70
2023/08/08 07:14:39;;;;;;;;;;;14.70;99.90;;;;;;5030066;28;20178;-71
2023/08/08 07:17:06;;;;;;;;;;;14.80;99.90;;;;;;5029068;28;19921;-71
2023/08/08 07:19:32;;;;;;;;;;;14.80;99.90;;;;;;5030137;28;19989;-70
2023/08/08 07:21:59;;;;;;;;;;;14.80;99.90;;;;;;5021812;28;19921;-71
2023/08/08 07:24:28;;;;;;;;;;;14.90;99.90;;;;;;5010004;28;19922;-70
2023/08/08 07:26:55;;;;;;;;;;;14.90;99.90;;;;;;5009551;28;19922;-70
2023/08/08 07:29:22;;;;;;;;;;;15.00;99.90;;;;;;5010321;28;20077;-70
2023/08/08 07:31:48;;;;;;;;;;;15.00;99.90;;;;;;5010093;28;20201;-70
2023/08/08 07:34:15;;;;;;;;;;;15.10;99.90;;;;;;5010043;28;19944;-70
2023/08/08 07:36:41;;;;;;;;;;;15.20;99.90;;;;;;5004800;28;19922;-71
2023/08/08 07:39:09;;;;;;;;;;;15.30;99.90;;;;;;5013169;28;20142;-71
2023/08/08 07:41:37;;;;;;;;;;;15.30;99.90;;;;;;5026707;28;20296;-71
2023/08/08 07:44:04;;;;;;;;;;;15.30;99.90;;;;;;5026839;28;19996;-71
2023/08/08 07:46:30;;;;;;;;;;;15.40;99.90;;;;;;5025779;28;20169;-70
2023/08/08 07:48:59;;;;;;;;;;;15.40;99.90;;;;;;5023830;28;19921;-69
2023/08/08 07:51:25;;;;;;;;;;;15.40;99.90;;;;;;5000816;28;19960;-69
2023/08/08 07:53:52;;;;;;;;;;;15.50;99.90;;;;;;5019101;28;19988;-70
2023/08/08 07:56:19;;;;;;;;;;;15.50;99.90;;;;;;5005630;28;19953;-70
2023/08/08 07:58:47;;;;;;;;;;;15.60;99.90;;;;;;5004637;28;19922;-70
2023/08/08 08:01:14;;;;;;;;;;;15.70;99.90;;;;;;4987022;28;19988;-70
2023/08/08 08:03:40;;;;;;;;;;;15.60;99.90;;;;;;5005558;28;19928;-70
2023/08/08 08:06:07;;;;;;;;;;;15.70;99.90;;;;;;5000927;28;20008;-70
2023/08/08 08:08:33;;;;;;;;;;;15.80;99.90;;;;;;5004475;28;20090;-71
2023/08/08 08:11:02;;;;;;;;;;;15.90;99.90;;;;;;5006644;28;20108;-70
2023/08/08 08:13:29;;;;;;;;;;;15.90;99.90;;;;;;4992824;28;19922;-71
2023/08/08 08:15:58;;;;;;;;;;;16.00;99.90;;;;;;4990447;28;19922;-71
2023/08/08 08:18:24;;;;;;;;;;;16.10;99.90;;;;;;4986729;28;19922;-71
2023/08/08 08:20:51;;;;;;;;;;;16.20;99.90;;;;;;4986782;28;19926;-70
2023/08/08 08:23:18;;;;;;;;;;;16.20;99.90;;;;;;5017589;28;19921;-70
2023/08/08 08:25:44;;;;;;;;;;;16.30;99.90;;;;;;5025187;28;19928;-71
2023/08/08 08:28:11;;;;;;;;;;;16.30;99.90;;;;;;5024995;28;19953;-70
2023/08/08 08:30:38;;;;;;;;;;;16.40;99.90;;;;;;5025895;28;19921;-70
2023/08/08 08:33:07;;;;;;;;;;;16.40;99.90;;;;;;5015180;28;20005;-70
2023/08/08 08:35:37;;;;;;;;;;;16.50;99.90;;;;;;5003410;28;19929;-70
2023/08/08 08:38:13;;;;;;;;;;;16.50;99.90;;;;;;5007607;28;20454;-69
2023/08/08 08:40:45;;;;;;;;;;;16.50;99.90;;;;;;5005728;28;20218;-70
2023/08/08 08:43:16;;;;;;;;;;;16.50;99.90;;;;;;4988244;28;20438;-69
2023/08/08 08:45:44;;;;;;;;;;;16.50;99.90;;;;;;5000302;28;19921;-70
2023/08/08 08:48:17;;;;;;;;;;;16.50;99.90;;;;;;5002393;28;19921;-70
2023/08/08 08:50:57;;;;;;;;;;;16.50;99.90;;;;;;4988793;28;19922;-70
2023/08/08 08:53:25;;;;;;;;;;;16.60;99.90;;;;;;5001982;28;19929;-70
2023/08/08 08:55:56;;;;;;;;;;;16.70;99.90;;;;;;5005288;28;19960;-70
2023/08/08 08:58:29;;;;;;;;;;;16.80;99.90;;;;;;5005655;28;19953;-70
2023/08/08 09:00:56;;;;;;;;;;;16.90;99.90;;;;;;5005542;28;19922;-70
2023/08/08 09:03:25;;;;;;;;;;;17.00;99.90;;;;;;5005756;28;20157;-70
2023/08/08 09:05:54;;;;;;;;;;;16.90;99.90;;;;;;5005105;28;19964;-70
2023/08/08 09:08:20;;;;;;;;;;;16.90;99.90;;;;;;5004483;28;19993;-70
2023/08/08 09:10:47;;;;;;;;;;;17.00;99.90;;;;;;5005150;28;19981;-70
2023/08/08 09:13:14;;;;;;;;;;;17.10;99.90;;;;;;5005130;28;20251;-70
2023/08/08 09:15:40;;;;;;;;;;;17.10;99.90;;;;;;5004680;28;19922;-71
2023/08/08 09:18:08;;;;;;;;;;;17.20;99.90;;;;;;5004535;28;19928;-70
2023/08/08 09:20:36;;;;;;;;;;;17.20;99.90;;;;;;5005081;28;20179;-71
2023/08/08 09:23:02;;;;;;;;;;;17.20;99.90;;;;;;5001896;28;19921;-71
2023/08/08 09:25:29;;;;;;;;;;;17.30;99.90;;;;;;5005080;28;20175;-70
2023/08/08 09:27:56;;;;;;;;;;;17.30;99.90;;;;;;5003928;28;19928;-70
2023/08/08 09:30:22;;;;;;;;;;;17.30;99.90;;;;;;5005207;28;20173;-69
2023/08/08 09:32:49;;;;;;;;;;;17.40;99.90;;;;;;5004936;28;20018;-70
2023/08/08 09:35:16;;;;;;;;;;;17.50;99.90;;;;;;5005260;28;20127;-69
2023/08/08 09:37:44;;;;;;;;;;;17.60;99.90;;;;;;4999197;28;19928;-70
2023/08/08 09:40:11;;;;;;;;;;;17.70;99.90;;;;;;5019541;28;19960;-71
2023/08/08 09:42:38;;;;;;;;;;;17.70;99.90;;;;;;5010419;28;19960;-70
2023/08/08 09:45:05;;;;;;;;;;;17.70;99.90;;;;;;5004827;28;19992;-69
2023/08/08 09:47:33;;;;;;;;;;;17.70;99.90;;;;;;5001279;28;19928;-70
2023/08/08 09:50:00;;;;;;;;;;;17.80;99.90;;;;;;5004549;28;19988;-71
2023/08/08 09:52:27;;;;;;;;;;;17.90;99.90;;;;;;5012019;23;19956;-70
2023/08/08 09:54:55;;;;;;;;;;;17.90;99.90;;;;;;5019442;28;20216;-70
2023/08/08 09:57:23;;;;;;;;;;;18.00;99.90;;;;;;5023778;28;19922;-70
2023/08/08 09:59:50;;;;;;;;;;;18.00;99.90;;;;;;5023163;28;19957;-70
2023/08/08 10:02:17;;;;;;;;;;;18.10;99.90;;;;;;5024009;28;19921;-70
2023/08/08 10:04:45;;;;;;;;;;;18.10;99.90;;;;;;5024112;28;19925;-70
2023/08/08 10:07:11;;;;;;;;;;;18.10;99.90;;;;;;5016834;28;19922;-70
2023/08/08 10:09:38;;;;;;;;;;;18.00;99.90;;;;;;5014533;28;20128;-70
2023/08/08 10:12:06;;;;;;;;;;;17.80;99.90;;;;;;5011652;28;19964;-70
2023/08/08 10:14:36;;;;;;;;;;;17.80;99.90;;;;;;5004476;28;19922;-72
2023/08/08 10:17:03;;;;;;;;;;;17.80;99.90;;;;;;5003561;28;20377;-70
2023/08/08 10:19:35;;;;;;;;;;;17.80;99.90;;;;;;5002163;28;20188;-70
2023/08/08 10:22:04;;;;;;;;;;;17.80;99.90;;;;;;5007235;28;19929;-71
2023/08/08 10:24:34;;;;;;;;;;;17.90;99.90;;;;;;5004372;28;19989;-70
2023/08/08 10:27:02;;;;;;;;;;;17.90;99.90;;;;;;5003836;28;19945;-71
2023/08/08 10:29:30;;;;;;;;;;;17.90;99.90;;;;;;5004019;28;20276;-70
2023/08/08 10:31:59;;;;;;;;;;;18.00;99.90;;;;;;5004210;28;19957;-70
2023/08/08 10:34:28;;;;;;;;;;;18.10;99.90;;;;;;5003981;28;19957;-70
2023/08/08 10:36:55;;;;;;;;;;;18.00;99.90;;;;;;5011983;28;19964;-71
2023/08/08 10:39:22;;;;;;;;;;;18.10;99.90;;;;;;5023632;28;19989;-71
2023/08/08 10:41:49;;;;;;;;;;;18.10;99.90;;;;;;5023649;28;19980;-70
2023/08/08 10:44:23;;;;;;;;;;;18.10;99.90;;;;;;5003896;28;19982;-71
2023/08/08 10:46:52;;;;;;;;;;;18.10;99.90;;;;;;5003450;28;19922;-70
2023/08/08 10:49:18;;;;;;;;;;;18.10;99.90;;;;;;5003972;28;19993;-70
2023/08/08 10:51:46;;;;;;;;;;;18.10;99.90;;;;;;5004564;28;19977;-71
2023/08/08 10:54:14;;;;;;;;;;;18.10;99.90;;;;;;5004007;28;20209;-73
2023/08/08 10:56:41;;;;;;;;;;;18.20;99.90;;;;;;5003265;28;20142;-71
2023/08/08 10:59:14;;;;;;;;;;;18.30;99.90;;;;;;5003721;28;20255;-71
2023/08/08 11:01:41;;;;;;;;;;;18.30;99.90;;;;;;5003675;28;20232;-71
2023/08/08 11:04:09;;;;;;;;;;;18.40;99.90;;;;;;5003638;28;19921;-70
2023/08/08 11:06:38;;;;;;;;;;;18.50;99.90;;;;;;5004755;28;20415;-71
2023/08/08 11:09:06;;;;;;;;;;;18.60;99.90;;;;;;5017288;28;20267;-70
2023/08/08 11:11:36;;;;;;;;;;;18.80;99.90;;;;;;5013289;28;19929;-70
2023/08/08 11:14:09;;;;;;;;;;;18.80;99.90;;;;;;5007570;28;19990;-71
2023/08/08 11:16:36;;;;;;;;;;;18.90;99.90;;;;;;5006939;28;19989;-71
2023/08/08 11:19:03;;;;;;;;;;;19.00;99.90;;;;;;5007183;28;19965;-70
2023/08/08 11:21:33;;;;;;;;;;;19.20;99.90;;;;;;5012130;28;20232;-71
2023/08/08 11:24:00;;;;;;;;;;;19.30;99.90;;;;;;5026550;28;19964;-70
2023/08/08 11:26:31;;;;;;;;;;;19.40;99.90;;;;;;5023541;28;19922;-71
2023/08/08 11:28:59;;;;;;;;;;;19.50;99.90;;;;;;5026788;28;19960;-71
2023/08/08 11:31:26;;;;;;;;;;;19.50;99.90;;;;;;5026819;28;20165;-71
2023/08/08 11:33:54;;;;;;;;;;;19.50;99.90;;;;;;5023132;28;19922;-71
2023/08/08 11:36:22;;;;;;;;;;;19.50;99.90;;;;;;5010196;28;19940;-70
2023/08/08 11:38:50;;;;;;;;;;;19.60;99.90;;;;;;5007353;28;20225;-71
2023/08/08 11:41:18;;;;;;;;;;;19.70;99.90;;;;;;5006716;28;19929;-73
2023/08/08 11:43:46;;;;;;;;;;;19.80;99.90;;;;;;5006745;28;19921;-70
2023/08/08 11:46:13;;;;;;;;;;;19.90;99.90;;;;;;5007000;28;19929;-70
2023/08/08 11:48:39;;;;;;;;;;;20.00;99.90;;;;;;5026051;28;19929;-70
2023/08/08 11:51:06;;;;;;;;;;;20.00;99.90;;;;;;5025984;28;20259;-71
2023/08/08 11:53:34;;;;;;;;;;;19.90;99.90;;;;;;5024522;28;19921;-71
2023/08/08 11:56:03;;;;;;;;;;;19.90;99.90;;;;;;5020527;28;20209;-71
2023/08/08 11:58:31;;;;;;;;;;;19.90;99.90;;;;;;4992072;28;19929;-71
2023/08/08 12:00:58;;;;;;;;;;;19.80;99.90;;;;;;5008679;28;19921;-71
2023/08/08 12:03:26;;;;;;;;;;;19.80;99.90;;;;;;5026205;28;19957;-72
2023/08/08 12:05:53;;;;;;;;;;;19.90;99.90;;;;;;5023504;28;19960;-70
2023/08/08 12:08:20;;;;;;;;;;;19.90;99.90;;;;;;5018248;28;19928;-70
2023/08/08 12:10:51;;;;;;;;;;;20.00;99.90;;;;;;5017083;28;19964;-70
2023/08/08 12:13:22;;;;;;;;;;;20.20;99.90;;;;;;5014643;28;19934;-71
2023/08/08 12:15:49;;;;;;;;;;;20.40;99.90;;;;;;5005741;28;19998;-74
2023/08/08 12:18:17;;;;;;;;;;;20.60;99.90;;;;;;5018622;28;20117;-70
2023/08/08 12:20:43;;;;;;;;;;;20.70;99.90;;;;;;5026053;28;19952;-70
2023/08/08 12:23:10;;;;;;;;;;;20.80;99.90;;;;;;5014950;28;19928;-71
2023/08/08 12:25:37;;;;;;;;;;;20.80;99.90;;;;;;5005729;28;19988;-71
2023/08/08 12:28:04;;;;;;;;;;;20.80;99.90;;;;;;5005510;28;19956;-71
2023/08/08 12:30:32;;;;;;;;;;;20.80;99.90;;;;;;5009981;28;19922;-70
2023/08/08 12:32:59;;;;;;;;;;;20.80;99.90;;;;;;5005909;28;19929;-71
2023/08/08 12:35:27;;;;;;;;;;;20.70;99.90;;;;;;5012622;28;20105;-71
2023/08/08 12:37:53;;;;;;;;;;;20.60;99.90;;;;;;5009792;28;19922;-70
2023/08/08 12:40:20;;;;;;;;;;;20.70;99.90;;;;;;5017020;28;19921;-71
2023/08/08 12:42:47;;;;;;;;;;;20.70;99.90;;;;;;5011296;28;20176;-69
2023/08/08 12:45:14;;;;;;;;;;;20.70;99.90;;;;;;5017270;28;19929;-70
2023/08/08 12:47:42;;;;;;;;;;;20.60;99.90;;;;;;5005016;28;19953;-71
2023/08/08 12:50:09;;;;;;;;;;;20.50;99.90;;;;;;5005710;28;19960;-72
2023/08/08 12:52:37;;;;;;;;;;;20.50;99.90;;;;;;5019368;28;19929;-71
2023/08/08 12:55:05;;;;;;;;;;;20.50;99.90;;;;;;5025063;28;19989;-70
2023/08/08 12:57:31;;;;;;;;;;;20.60;99.90;;;;;;5015167;28;19944;-70
2023/08/08 12:59:58;;;;;;;;;;;20.70;99.90;;;;;;5005319;28;19956;-72
2023/08/08 13:02:24;;;;;;;;;;;20.80;99.90;;;;;;5013684;28;19921;-70
2023/08/08 13:04:52;;;;;;;;;;;20.70;99.90;;;;;;5024999;28;19921;-71
2023/08/08 13:07:19;;;;;;;;;;;20.60;99.90;;;;;;5023059;28;20181;-72
2023/08/08 13:09:46;;;;;;;;;;;20.60;99.90;;;;;;5016684;28;19925;-71
2023/08/08 13:12:12;;;;;;;;;;;20.60;99.90;;;;;;5024908;28;19972;-70
2023/08/08 13:14:40;;;;;;;;;;;20.50;99.90;;;;;;5017175;28;19997;-70
2023/08/08 13:17:06;;;;;;;;;;;20.40;99.90;;;;;;5024096;28;19962;-70
2023/08/08 13:19:33;;;;;;;;;;;20.40;99.90;;;;;;5024757;28;20165;-70
2023/08/08 13:22:03;;;;;;;;;;;20.50;99.90;;;;;;5015199;28;19922;-71
2023/08/08 13:24:30;;;;;;;;;;;20.60;99.90;;;;;;5014587;28;19992;-70
2023/08/08 13:26:57;;;;;;;;;;;20.70;99.90;;;;;;5023814;28;19921;-70
2023/08/08 13:29:23;;;;;;;;;;;20.80;99.90;;;;;;5024401;28;19937;-70
2023/08/08 13:31:50;;;;;;;;;;;20.90;99.90;;;;;;5011578;28;19976;-71
2023/08/08 13:34:16;;;;;;;;;;;20.80;99.90;;;;;;5004779;28;19928;-71
2023/08/08 13:36:43;;;;;;;;;;;20.80;99.90;;;;;;5008401;28;19930;-70
2023/08/08 13:39:11;;;;;;;;;;;20.70;99.90;;;;;;5015069;28;19989;-71
2023/08/08 13:41:38;;;;;;;;;;;20.70;99.90;;;;;;5021315;28;19989;-70
2023/08/08 13:44:04;;;;;;;;;;;20.60;99.90;;;;;;5004930;28;19922;-71
2023/08/08 13:46:31;;;;;;;;;;;20.60;99.90;;;;;;5004116;28;19922;-72
2023/08/08 13:48:58;;;;;;;;;;;20.50;99.90;;;;;;5004518;28;19993;-71
2023/08/08 13:51:24;;;;;;;;;;;20.50;99.90;;;;;;5005926;28;19989;-71
2023/08/08 13:53:51;;;;;;;;;;;20.50;99.90;;;;;;5004678;28;19949;-70
2023/08/08 13:56:19;;;;;;;;;;;20.40;99.90;;;;;;5018751;28;19996;-70
2023/08/08 13:58:46;;;;;;;;;;;20.40;99.90;;;;;;5024331;28;19964;-71
2023/08/08 14:01:12;;;;;;;;;;;20.60;99.90;;;;;;5024233;28;19956;-70
2023/08/08 14:03:39;;;;;;;;;;;20.70;99.90;;;;;;5023880;28;19922;-71
2023/08/08 14:06:06;;;;;;;;;;;20.70;99.90;;;;;;5019351;28;19984;-71
2023/08/08 14:08:32;;;;;;;;;;;20.80;99.90;;;;;;5023510;28;19921;-71
2023/08/08 14:10:59;;;;;;;;;;;21.00;99.90;;;;;;5023335;28;19988;-70
2023/08/08 14:13:27;;;;;;;;;;;21.30;99.90;;;;;;5023914;28;19921;-71
2023/08/08 14:15:54;;;;;;;;;;;21.50;99.90;;;;;;5023488;28;19921;-69
2023/08/08 14:18:20;;;;;;;;;;;21.70;99.90;;;;;;5023479;28;19923;-70
2023/08/08 14:20:47;;;;;;;;;;;21.80;99.90;;;;;;5019506;28;19928;-70
2023/08/08 14:23:13;;;;;;;;;;;21.80;99.90;;;;;;5007618;28;19984;-70
2023/08/08 14:25:40;;;;;;;;;;;21.70;99.90;;;;;;5003451;28;19981;-70
2023/08/08 14:28:07;;;;;;;;;;;21.80;99.90;;;;;;5005656;28;19957;-71
2023/08/08 14:30:44;;;;;;;;;;;21.70;99.90;;;;;;5021692;28;20268;-71
2023/08/08 14:36:07;;;;;;;;;;;21.40;99.90;;;;;;5003310;28;19957;-70
2023/08/08 14:38:35;;;;;;;;;;;21.40;99.90;;;;;;5023619;28;19921;-70
2023/08/08 14:41:03;;;;;;;;;;;21.20;99.90;;;;;;5020496;28;19929;-70
2023/08/08 14:46:34;;;;;;;;;;;21.30;99.90;;;;;;5015344;28;19981;-70
2023/08/08 14:49:01;;;;;;;;;;;21.20;99.90;;;;;;5007912;28;20000;-70
2023/08/08 14:57:42;;;;;;;;;;;20.90;99.90;;;;;;4871856;29;20024;-71
2023/08/08 15:00:11;;;;;;;;;;;20.80;99.90;;;;;;4918684;29;19929;-70
2023/08/08 15:02:39;;;;;;;;;;;20.80;99.90;;;;;;4990206;28;19953;-70
2023/08/08 15:11:24;;;;;;;;;;;20.90;99.90;;;;;;4947500;28;19955;-71
2023/08/08 15:13:51;;;;;;;;;;;21.20;99.90;;;;;;5027364;28;19921;-70
2023/08/08 15:16:18;;;;;;;;;;;21.20;99.90;;;;;;5026463;28;20121;-71
2023/08/08 15:18:46;;;;;;;;;;;21.30;99.90;;;;;;5026898;28;19921;-70
2023/08/08 15:21:12;;;;;;;;;;;21.30;99.90;;;;;;5027120;28;20012;-70
2023/08/08 15:23:41;;;;;;;;;;;21.20;99.90;;;;;;5018508;28;19922;-70
2023/08/08 15:26:08;;;;;;;;;;;21.20;99.90;;;;;;5026403;28;19936;-71
2023/08/08 15:28:34;;;;;;;;;;;21.10;99.90;;;;;;5026876;28;20157;-70
2023/08/08 15:31:01;;;;;;;;;;;20.90;99.90;;;;;;5026979;28;19921;-70
2023/08/08 15:33:28;;;;;;;;;;;20.90;99.90;;;;;;5026944;28;19955;-70